createdAt,value
2022-08-30T00:00:49.842Z,98291.09
2022-08-30T00:03:52.940Z,98286.78
2022-08-30T00:06:55.000Z,98291.44
2022-08-30T00:09:59.118Z,98290.69
2022-08-30T00:13:02.490Z,98294.47
2022-08-30T00:16:07.272Z,98289.69
2022-08-30T00:19:09.278Z,98291.34
2022-08-30T00:22:11.804Z,98284.94
2022-08-30T00:25:15.971Z,98286.94
2022-08-30T00:28:18.231Z,98289.88
2022-08-30T00:31:20.463Z,98291.16
2022-08-30T00:34:22.406Z,98288.41
2022-08-30T00:37:24.999Z,98293.97
2022-08-30T00:40:28.185Z,98291.75
2022-08-30T00:43:32.180Z,98294.00
2022-08-30T00:46:34.583Z,98293.16
2022-08-30T00:49:37.765Z,98293.53
2022-08-30T00:52:41.803Z,98291.53
2022-08-30T00:55:44.413Z,98295.53
2022-08-30T00:58:49.612Z,98284.34
2022-08-30T01:01:52.732Z,98286.63
2022-08-30T01:04:55.677Z,98280.34
2022-08-30T01:07:57.716Z,98280.34
2022-08-30T01:11:00.227Z,98282.72
2022-08-30T01:14:05.245Z,98287.19
2022-08-30T01:17:07.976Z,98277.41
2022-08-30T01:20:18.396Z,98279.75
2022-08-30T01:23:21.536Z,98283.09
2022-08-30T01:26:24.832Z,98289.19
2022-08-30T01:29:26.901Z,98273.28
2022-08-30T01:32:30.051Z,98285.41
2022-08-30T01:35:43.969Z,98282.84
2022-08-30T01:38:54.975Z,98279.50
2022-08-30T01:41:56.944Z,98272.56
2022-08-30T01:44:59.146Z,98268.91
2022-08-30T01:48:01.669Z,98261.03
2022-08-30T01:51:05.429Z,98267.31
2022-08-30T01:54:10.457Z,98259.38
2022-08-30T01:57:22.950Z,98266.34
2022-08-30T02:00:24.998Z,98265.28
2022-08-30T02:03:31.238Z,98254.56
2022-08-30T02:06:33.181Z,98257.38
2022-08-30T02:09:35.078Z,98266.13
2022-08-30T02:12:36.923Z,98269.25
2022-08-30T02:15:41.406Z,98269.13
2022-08-30T02:18:45.366Z,98263.94
2022-08-30T02:21:47.294Z,98266.19
2022-08-30T02:24:49.339Z,98269.34
2022-08-30T02:27:51.250Z,98267.38
2022-08-30T02:30:53.676Z,98267.22
2022-08-30T02:33:55.696Z,98262.63
2022-08-30T02:36:57.510Z,98269.25
2022-08-30T02:39:59.378Z,98269.91
2022-08-30T02:43:01.392Z,98270.25
2022-08-30T02:46:03.627Z,98259.97
2022-08-30T02:49:30.283Z,98257.34
2022-08-30T02:52:29.374Z,98264.94
2022-08-30T02:55:31.583Z,98262.63
2022-08-30T02:58:36.941Z,98254.75
2022-08-30T03:01:39.627Z,98264.00
2022-08-30T03:04:41.459Z,98269.28
2022-08-30T03:07:45.712Z,98263.53
2022-08-30T03:10:47.574Z,98264.69
2022-08-30T03:13:49.605Z,98265.41
2022-08-30T03:16:51.700Z,98267.03
2022-08-30T03:19:54.365Z,98279.09
2022-08-30T03:22:56.236Z,98276.78
2022-08-30T03:25:58.163Z,98273.69
2022-08-30T03:29:00.081Z,98280.94
2022-08-30T03:32:02.878Z,98284.09
2022-08-30T03:35:05.785Z,98277.66
2022-08-30T03:38:07.786Z,98275.78
2022-08-30T03:41:09.920Z,98281.28
2022-08-30T03:44:12.035Z,98282.28
2022-08-30T03:47:14.886Z,98286.41
2022-08-30T03:50:17.438Z,98281.94
2022-08-30T03:53:19.765Z,98287.56
2022-08-30T03:56:22.304Z,98280.59
2022-08-30T03:59:24.331Z,98287.22
2022-08-30T04:02:26.928Z,98283.38
2022-08-30T04:05:29.444Z,98281.13
2022-08-30T04:08:31.527Z,98281.13
2022-08-30T04:11:34.479Z,98293.19
2022-08-30T04:14:36.365Z,98296.81
2022-08-30T04:17:38.333Z,98298.97
2022-08-30T04:20:40.518Z,98299.81
2022-08-30T04:23:43.703Z,98303.41
2022-08-30T04:26:46.059Z,98303.91
2022-08-30T04:29:48.366Z,98305.38
2022-08-30T04:32:52.064Z,98301.75
2022-08-30T04:36:04.087Z,98309.66
2022-08-30T04:39:07.385Z,98312.59
2022-08-30T04:42:11.789Z,98314.66
2022-08-30T04:45:16.431Z,98317.78
2022-08-30T04:48:18.677Z,98319.88
2022-08-30T04:51:20.709Z,98326.56
2022-08-30T04:54:22.832Z,98324.94
2022-08-30T04:57:25.718Z,98321.66
2022-08-30T05:00:28.049Z,98331.06
2022-08-30T05:03:30.594Z,98323.72
2022-08-30T05:06:32.708Z,98334.97
2022-08-30T05:09:34.717Z,98330.00
2022-08-30T05:12:36.696Z,98328.25
2022-08-30T05:15:40.757Z,98326.81
2022-08-30T05:18:42.703Z,98336.84
2022-08-30T05:21:45.298Z,98343.41
2022-08-30T05:24:47.580Z,98348.19
2022-08-30T05:27:49.614Z,98345.72
2022-08-30T05:30:54.121Z,98343.72
2022-08-30T05:33:56.552Z,98344.94
2022-08-30T05:36:59.825Z,98340.56
2022-08-30T05:40:11.105Z,98345.38
2022-08-30T05:43:14.469Z,98349.97
2022-08-30T05:46:20.157Z,98353.22
2022-08-30T05:49:22.454Z,98359.94
2022-08-30T05:52:24.445Z,98358.03
2022-08-30T05:55:29.682Z,98355.22
2022-08-30T05:58:32.058Z,98353.94
2022-08-30T06:01:38.023Z,98363.25
2022-08-30T06:04:42.037Z,98363.31
2022-08-30T06:07:46.039Z,98361.00
2022-08-30T06:10:49.530Z,98353.34
2022-08-30T06:13:54.137Z,98348.03
2022-08-30T06:16:56.112Z,98353.16
2022-08-30T06:19:59.235Z,98347.66
2022-08-30T06:23:01.718Z,98353.22
2022-08-30T06:26:06.001Z,98354.66
2022-08-30T06:29:10.125Z,98358.09
2022-08-30T06:32:12.279Z,98361.91
2022-08-30T06:35:14.583Z,98359.72
2022-08-30T06:38:19.261Z,98361.03
2022-08-30T06:41:24.230Z,98354.34
2022-08-30T06:44:27.004Z,98354.06
2022-08-30T06:47:30.192Z,98359.53
2022-08-30T06:50:32.601Z,98365.47
2022-08-30T06:53:36.138Z,98368.59
2022-08-30T06:56:40.330Z,98364.13
2022-08-30T06:59:44.889Z,98369.00
2022-08-30T07:02:47.318Z,98369.47
2022-08-30T07:05:50.907Z,98374.78
2022-08-30T07:08:56.430Z,98372.34
2022-08-30T07:12:03.393Z,98380.97
2022-08-30T07:15:08.223Z,98375.22
2022-08-30T07:18:30.812Z,98382.56
2022-08-30T07:21:36.482Z,98382.97
2022-08-30T07:24:38.970Z,98389.91
2022-08-30T07:27:41.839Z,98388.91
2022-08-30T07:30:44.151Z,98379.44
2022-08-30T07:33:48.044Z,98385.63
2022-08-30T07:36:50.281Z,98387.63
2022-08-30T07:39:52.709Z,98387.56
2022-08-30T07:42:55.341Z,98388.41
2022-08-30T07:46:05.882Z,98391.47
2022-08-30T07:49:11.096Z,98389.44
2022-08-30T07:52:13.927Z,98397.25
2022-08-30T07:55:16.604Z,98405.88
2022-08-30T07:58:21.780Z,98407.50
2022-08-30T08:01:24.224Z,98401.44
2022-08-30T08:28:02.854Z,98393.44
2022-08-30T08:31:18.231Z,98397.69
2022-08-30T08:34:23.825Z,98400.88
2022-08-30T08:37:28.268Z,98400.81
2022-08-30T08:40:36.602Z,98404.03
2022-08-30T08:43:38.864Z,98404.72
2022-08-30T08:46:58.190Z,98400.09
2022-08-30T08:50:05.931Z,98403.72
2022-08-30T08:53:52.766Z,98395.56
2022-08-30T08:56:55.115Z,98415.09
2022-08-30T09:00:00.479Z,98419.91
2022-08-30T09:03:05.974Z,98415.88
2022-08-30T09:06:46.081Z,98406.19
2022-08-30T09:09:49.081Z,98400.22
2022-08-30T09:12:51.184Z,98399.50
2022-08-30T09:15:59.588Z,98400.50
2022-08-30T09:19:02.789Z,98403.03
2022-08-30T09:22:24.874Z,98394.09
2022-08-30T09:25:41.859Z,98391.88
2022-08-30T09:28:49.475Z,98391.19
2022-08-30T09:32:22.532Z,98383.72
2022-08-30T09:35:37.756Z,98378.00
2022-08-30T09:38:40.121Z,98392.44
2022-08-30T09:41:44.986Z,98380.47
2022-08-30T09:44:47.343Z,98378.16
2022-08-30T09:47:49.430Z,98380.13
2022-08-30T09:51:06.126Z,98369.06
2022-08-30T09:54:17.870Z,98374.16
2022-08-30T09:57:53.342Z,98369.03
2022-08-30T10:01:20.473Z,98360.84
2022-08-30T10:04:41.434Z,98354.31
2022-08-30T10:08:19.560Z,98361.09
2022-08-30T10:11:43.962Z,98348.84
2022-08-30T10:14:49.583Z,98357.22
2022-08-30T10:17:56.269Z,98358.16
2022-08-30T10:21:19.034Z,98342.75
2022-08-30T10:24:31.238Z,98348.22
2022-08-30T10:27:42.963Z,98340.13
2022-08-30T10:30:54.138Z,98339.78
2022-08-30T10:34:01.194Z,98335.75
2022-08-30T10:37:12.481Z,98336.50
2022-08-30T10:40:53.334Z,98330.16
2022-08-30T10:44:00.113Z,98323.41
2022-08-30T10:47:23.113Z,98329.28
2022-08-30T10:50:30.018Z,98317.94
2022-08-30T10:53:39.836Z,98311.13
2022-08-30T10:56:43.928Z,98306.34
2022-08-30T10:59:51.229Z,98313.66
2022-08-30T11:03:12.045Z,98307.22
2022-08-30T11:06:53.883Z,98300.59
2022-08-30T11:10:26.296Z,98307.28
2022-08-30T11:13:30.798Z,98311.88
2022-08-30T11:16:48.470Z,98297.69
2022-08-30T11:19:51.086Z,98299.84
2022-08-30T11:23:16.105Z,98293.84
2022-08-30T11:26:48.603Z,98293.28
2022-08-30T11:29:50.958Z,98290.03
2022-08-30T11:33:09.847Z,98280.56
2022-08-30T11:36:37.401Z,98274.44
2022-08-30T11:39:41.029Z,98286.00
2022-08-30T11:42:46.196Z,98284.41
2022-08-30T11:45:52.711Z,98279.09
2022-08-30T11:49:15.588Z,98281.78
2022-08-30T11:52:46.947Z,98275.16
2022-08-30T11:56:10.449Z,98274.63
2022-08-30T11:59:27.854Z,98263.56
2022-08-30T12:02:53.168Z,98256.94
2022-08-30T12:06:01.547Z,98258.53
2022-08-30T12:09:08.303Z,98247.84
2022-08-30T12:12:13.059Z,98254.56
2022-08-30T12:15:48.149Z,98253.66
2022-08-30T12:18:53.492Z,98252.19
2022-08-30T12:22:06.163Z,98251.31
2022-08-30T12:25:35.190Z,98247.91
2022-08-30T12:28:42.102Z,98237.53
2022-08-30T12:31:56.135Z,98242.09
2022-08-30T12:35:07.610Z,98235.31
2022-08-30T12:38:26.767Z,98229.19
2022-08-30T12:41:43.479Z,98230.25
2022-08-30T12:44:48.050Z,98229.59
2022-08-30T12:47:58.834Z,98219.28
2022-08-30T12:51:01.262Z,98220.69
2022-08-30T12:54:20.794Z,98222.38
2022-08-30T12:57:37.545Z,98214.38
2022-08-30T13:00:47.373Z,98213.28
2022-08-30T13:04:17.449Z,98210.69
2022-08-30T13:07:32.540Z,98208.81
2022-08-30T13:10:36.737Z,98212.19
2022-08-30T13:13:51.973Z,98197.44
2022-08-30T13:17:06.843Z,98203.56
2022-08-30T13:20:12.747Z,98199.47
2022-08-30T13:23:23.964Z,98191.38
2022-08-30T13:26:29.510Z,98191.38
2022-08-30T13:29:34.893Z,98184.25
2022-08-30T13:32:39.056Z,98182.59
2022-08-30T13:35:42.770Z,98178.56
2022-08-30T13:38:45.041Z,98176.31
2022-08-30T13:41:47.436Z,98175.84
2022-08-30T13:44:49.443Z,98181.50
2022-08-30T13:47:52.581Z,98179.94
2022-08-30T13:50:56.032Z,98183.78
2022-08-30T13:53:58.551Z,98165.66
2022-08-30T13:57:02.885Z,98176.09
2022-08-30T14:00:14.487Z,98161.13
2022-08-30T14:03:18.508Z,98169.16
2022-08-30T14:06:33.610Z,98182.16
2022-08-30T14:09:38.605Z,98166.84
2022-08-30T14:13:02.543Z,98168.00
2022-08-30T14:19:29.454Z,98166.28
2022-08-30T14:22:32.024Z,98161.97
2022-08-30T14:25:34.932Z,98157.09
2022-08-30T14:28:37.299Z,98157.28
2022-08-30T14:31:41.701Z,98158.38
2022-08-30T14:34:43.794Z,98156.19
2022-08-30T14:37:49.020Z,98151.78
2022-08-30T14:40:51.556Z,98141.00
2022-08-30T14:43:53.815Z,98145.88
2022-08-30T14:46:57.029Z,98153.81
2022-08-30T14:50:01.315Z,98150.69
2022-08-30T14:53:05.433Z,98152.25
2022-08-30T14:56:13.640Z,98146.78
2022-08-30T14:59:16.534Z,98149.88
2022-08-30T15:02:22.124Z,98141.44
2022-08-30T15:05:27.526Z,98142.16
2022-08-30T15:08:33.485Z,98150.72
2022-08-30T15:11:39.046Z,98148.91
2022-08-30T15:14:41.592Z,98149.31
2022-08-30T15:17:45.763Z,98145.50
2022-08-30T15:20:49.569Z,98139.94
2022-08-30T15:23:52.411Z,98138.63
2022-08-30T15:26:54.793Z,98141.97
2022-08-30T15:29:56.797Z,98143.50
2022-08-30T15:32:59.357Z,98140.13
2022-08-30T15:36:04.327Z,98131.13
2022-08-30T15:39:14.005Z,98129.34
2022-08-30T15:42:19.526Z,98136.75
2022-08-30T15:45:22.776Z,98138.06
2022-08-30T15:48:25.342Z,98136.94
2022-08-30T15:51:28.641Z,98132.59
2022-08-30T15:54:35.449Z,98148.50
2022-08-30T15:57:37.749Z,98139.13
2022-08-30T16:00:44.895Z,98139.25
2022-08-30T16:03:47.770Z,98133.34
2022-08-30T16:06:51.565Z,98141.00
2022-08-30T16:09:54.547Z,98125.97
2022-08-30T16:13:00.538Z,98140.88
2022-08-30T16:16:05.718Z,98136.31
2022-08-30T16:19:09.037Z,98135.22
2022-08-30T16:22:11.776Z,98132.75
2022-08-30T16:25:14.952Z,98141.00
2022-08-30T16:28:18.024Z,98143.84
2022-08-30T16:31:21.661Z,98144.31
2022-08-30T16:34:24.913Z,98137.06
2022-08-30T16:37:28.222Z,98142.06
2022-08-30T16:40:31.213Z,98137.25
2022-08-30T16:43:34.193Z,98133.31
2022-08-30T16:46:37.130Z,98132.50
2022-08-30T16:49:39.816Z,98134.75
2022-08-30T16:52:44.322Z,98138.16
2022-08-30T16:55:46.459Z,98140.78
2022-08-30T16:58:49.543Z,98139.13
2022-08-30T17:01:52.296Z,98138.69
2022-08-30T17:04:54.631Z,98137.91
2022-08-30T17:07:59.438Z,98148.88
2022-08-30T17:11:01.695Z,98146.88
2022-08-30T17:14:05.845Z,98149.38
2022-08-30T17:17:10.698Z,98147.47
2022-08-30T17:20:13.833Z,98151.56
2022-08-30T17:23:15.981Z,98160.78
2022-08-30T17:26:18.611Z,98158.34
2022-08-30T17:29:21.699Z,98161.69
2022-08-30T17:32:24.089Z,98171.22
2022-08-30T17:35:27.020Z,98170.41
2022-08-30T17:38:30.061Z,98178.28
2022-08-30T17:41:32.936Z,98183.19
2022-08-30T17:44:36.481Z,98192.63
2022-08-30T17:47:40.085Z,98197.38
2022-08-30T17:50:42.376Z,98198.63
2022-08-30T17:53:45.112Z,98201.31
2022-08-30T17:56:48.463Z,98199.25
2022-08-30T17:59:50.772Z,98202.75
2022-08-30T18:02:54.127Z,98208.66
2022-08-30T18:05:56.525Z,98205.00
2022-08-30T18:08:59.372Z,98213.00
2022-08-30T18:12:01.820Z,98211.97
2022-08-30T18:15:12.117Z,98206.66
2022-08-30T18:18:15.482Z,98213.81
2022-08-30T18:21:22.111Z,98209.50
2022-08-30T18:24:25.225Z,98207.06
2022-08-30T18:27:28.337Z,98203.56
2022-08-30T18:30:34.717Z,98208.06
2022-08-30T18:33:42.840Z,98210.13
2022-08-30T18:36:46.094Z,98215.44
2022-08-30T18:39:50.413Z,98221.41
2022-08-30T18:42:57.393Z,98217.72
2022-08-30T18:46:05.251Z,98229.19
2022-08-30T18:49:07.366Z,98217.31
2022-08-30T18:52:11.195Z,98222.22
2022-08-30T18:55:14.123Z,98217.31
2022-08-30T18:58:17.314Z,98211.56
2022-08-30T19:01:23.041Z,98215.03
2022-08-30T19:04:30.149Z,98221.00
2022-08-30T19:07:37.762Z,98222.41
2022-08-30T19:10:41.532Z,98227.16
2022-08-30T19:13:45.097Z,98217.91
2022-08-30T19:16:47.550Z,98218.13
2022-08-30T19:19:52.404Z,98215.63
2022-08-30T19:23:08.830Z,98218.94
2022-08-30T19:26:11.870Z,98227.75
2022-08-30T19:29:14.803Z,98232.03
2022-08-30T19:32:17.115Z,98217.66
2022-08-30T19:35:20.722Z,98223.56
2022-08-30T19:38:23.544Z,98223.78
2022-08-30T19:41:30.572Z,98225.22
2022-08-30T19:44:32.652Z,98227.88
2022-08-30T19:47:35.145Z,98231.50
2022-08-30T19:50:37.962Z,98236.47
2022-08-30T19:53:40.593Z,98233.22
2022-08-30T19:56:43.807Z,98239.53
2022-08-30T19:59:46.176Z,98239.53
2022-08-30T20:02:51.172Z,98238.88
2022-08-30T20:05:54.528Z,98245.38
2022-08-30T20:12:20.500Z,98241.31
2022-08-30T20:15:23.601Z,98239.75
2022-08-30T20:18:26.418Z,98236.84
2022-08-30T20:21:29.125Z,98233.88
2022-08-30T20:24:33.402Z,98236.59
2022-08-30T20:27:37.251Z,98237.69
2022-08-30T20:30:39.328Z,98227.81
2022-08-30T20:33:41.541Z,98226.63
2022-08-30T20:36:44.049Z,98222.06
2022-08-30T20:39:46.603Z,98228.25
2022-08-30T20:42:49.297Z,98225.28
2022-08-30T20:45:52.409Z,98224.34
2022-08-30T20:48:54.492Z,98219.59
2022-08-30T20:51:56.799Z,98221.16
2022-08-30T20:54:58.741Z,98225.25
2022-08-30T20:58:01.182Z,98212.91
2022-08-30T21:01:03.957Z,98219.53
2022-08-30T21:04:07.038Z,98203.56
2022-08-30T21:07:09.237Z,98220.69
2022-08-30T21:10:12.275Z,98211.00
2022-08-30T21:13:14.471Z,98216.53
2022-08-30T21:16:17.294Z,98218.16
2022-08-30T21:19:24.225Z,98221.41
2022-08-30T21:22:26.651Z,98217.69
2022-08-30T21:25:28.958Z,98209.94
2022-08-30T21:28:31.305Z,98211.31
2022-08-30T21:31:33.584Z,98201.69
2022-08-30T21:34:54.574Z,98205.25
2022-08-30T21:37:56.788Z,98203.94
2022-08-30T21:40:59.196Z,98206.00
2022-08-30T21:44:03.634Z,98206.38
2022-08-30T21:47:06.624Z,98212.13
2022-08-30T21:50:11.729Z,98204.94
2022-08-30T21:53:17.145Z,98213.75
2022-08-30T21:56:22.074Z,98203.31
2022-08-30T21:59:24.308Z,98210.81
2022-08-30T22:02:26.318Z,98210.47
2022-08-30T22:05:28.426Z,98213.22
2022-08-30T22:08:30.446Z,98197.69
2022-08-30T22:11:34.555Z,98202.63
2022-08-30T22:14:36.859Z,98201.25
2022-08-30T22:17:39.169Z,98201.53
2022-08-30T22:20:41.452Z,98194.47
2022-08-30T22:23:45.183Z,98195.69
2022-08-30T22:26:47.680Z,98193.56
2022-08-30T22:29:50.130Z,98196.38
2022-08-30T22:32:52.671Z,98197.31
2022-08-30T22:35:55.587Z,98192.91
2022-08-30T22:38:58.215Z,98193.81
2022-08-30T22:42:00.432Z,98196.75
2022-08-30T22:45:02.502Z,98191.47
2022-08-30T22:48:04.467Z,98193.81
2022-08-30T22:51:07.419Z,98191.38
2022-08-30T22:54:10.413Z,98199.41
2022-08-30T22:57:15.905Z,98197.13
2022-08-30T23:00:20.268Z,98184.72
2022-08-30T23:03:22.652Z,98185.38
2022-08-30T23:06:25.413Z,98180.25
2022-08-30T23:09:29.090Z,98183.06
2022-08-30T23:12:31.502Z,98181.59
2022-08-30T23:15:33.289Z,98178.84
2022-08-30T23:18:38.347Z,98186.34
2022-08-30T23:21:40.161Z,98174.09
2022-08-30T23:25:00.721Z,98170.84
2022-08-30T23:28:21.268Z,98177.97
2022-08-30T23:31:41.955Z,98174.84
2022-08-30T23:35:03.096Z,98175.28
2022-08-30T23:38:24.477Z,98175.75
2022-08-30T23:41:45.041Z,98182.88
2022-08-30T23:45:05.650Z,98182.41
2022-08-30T23:48:26.317Z,98175.53
2022-08-30T23:51:47.383Z,98172.22
2022-08-30T23:55:08.351Z,98175.91
2022-08-30T23:58:28.848Z,98177.63
